Pagrindinis puslapis
METAR-TAF:

METAR-TAF

Oro uostai :

Praha, Čekija

platuma: 50-06N, ilguma: 014-15E, Aukštis: 365 m

Dabartinis oras

Ataskaita buvo paskelbta 33 minutes, ne 15:30 UTC
Vėjas 5 kt iš Vakarų/Šiaurės Vakarų, svyruoja nuo Vakarų ir Šiaurės/Šiaurės Vakarų
Temperatūra 15°C
Drėgmė 39%
Slėgis 1027 hPa
Matomumas 10 km arba daugiau
nėra debesų žemiau 1500 m ir nėra kamuolinių lietaus debesų

METAR: LKPR 201530Z 30005KT 260V330 CAVOK 15/01 Q1027 NOSIG

Laikas: 18:03 (16:03 UTC)

Prognozė

Ataskaita buvo paskelbta 5 valandos ir 3 minutes, ne 11:00 UTC
Prognozė galioja nuo 20 metu 12 UTC su 21 metu 18 UTC
Vėjas 6 kt iš Šiaurės Vakarų
Matomumas 10 km arba daugiau
nėra debesų žemiau 1500 m ir nėra kamuolinių lietaus debesų
Tapsmas
nuo 20 metu 16 UTC su 20 metu 18 UTC
Vėjas 2 kt iš Pietvakarių
Laikinai
nuo 20 metu 18 UTC su 21 metu 06 UTC
Vėjas 2 kt nuo kintamojo kryptimis
Tapsmas
nuo 21 metu 06 UTC su 21 metu 09 UTC
Vėjas 6 kt iš Pietryčių

TAF: LKPR 201100Z 2012/2118 32006KT CAVOK BECMG 2016/2018 23002KT TEMPO 2018/2106 VRB02KT BECMG 2106/2109 14006KT

Orai ataskaitas ir orų prognozės (METAR, TAF).

turimą stotys yra geltonos ir raudonos taškus žemėlapyje.

Perkelti pele per norėdami pamatyti stoties vardą.

Tada spustelėkite, norėdami matyti oro stebėjimo ir prognozės.

Norėdami pakeisti žemėlapį: spustelėkite ant žalios mygtukų su juodo kryžiaus žemyn,; žalią mygtuką su brūkšneliu, jei norite nutolinti; arba žalių rodyklių gretimoms žemėlapius.


METAR-TAF: